Friday, September 21, 2018, 5:34 PM EDT
Back to Local

KTAN, Taunton Municipal Airport

Location: East Taunton, MA, United States Lat: 41.883
Local Time: 5:34 PM EDT (21:34 GMT) Lon: -71.017
Time Zone: US/Eastern Elev: 42 ft

Show me the last for .
Show Decoded

2018-09-21 16:52 METAR KTAN 212052Z AUTO 20004KT 10SM BKN050 19/13 A3011 RMK AO2 SLP196 T01940133
                 56026 =
2018-09-21 15:52 METAR KTAN 211952Z AUTO 18007KT 10SM OVC055 20/13 A3014 RMK AO2 SLP205 T02000128
                 =
2018-09-21 14:52 METAR KTAN 211852Z AUTO 18008G19KT 10SM FEW048 21/13 A3016 RMK AO2 SLP212
                 T02110128 =
2018-09-21 13:52 METAR KTAN 211752Z AUTO 17010G15KT 10SM SCT031 22/13 A3019 RMK AO2 SLP222
                 T02170128 10217 20150 56024 =
2018-09-21 12:52 METAR KTAN 211652Z AUTO 18008KT 150V210 10SM FEW034 21/12 A3021 RMK AO2 SLP230
                 T02110117 =
2018-09-21 11:52 METAR KTAN 211552Z AUTO 15008KT 10SM FEW033 21/12 A3023 RMK AO2 SLP237 T02110122
                 =
2018-09-21 10:52 METAR KTAN 211452Z AUTO VRB06KT 10SM FEW031 20/12 A3026 RMK AO2 SLP246 T02000117
                 58017 =
2018-09-21 09:52 METAR KTAN 211352Z AUTO 16007KT 140V200 10SM BKN090 19/11 A3028 RMK AO2 SLP255
                 T01940111 =
2018-09-21 08:52 METAR KTAN 211252Z AUTO 13007KT 10SM SCT095 18/11 A3030 RMK AO2 SLP261 T01830111
                 =
2018-09-21 07:52 METAR KTAN 211152Z AUTO 00000KT 10SM FEW100 15/13 A3031 RMK AO2 SLP263 70001
                 T01500133 10150 20122 50008 =
2018-09-21 06:52 METAR KTAN 211052Z AUTO 00000KT 9SM OVC110 13/12 A3031 RMK AO2 SLP264 T01280122
                 =
2018-09-21 05:52 METAR KTAN 210952Z AUTO 00000KT 10SM CLR 14/13 A3029 RMK AO2 SLP258 T01390128 =
2018-09-21 04:52 METAR KTAN 210852Z AUTO 00000KT 10SM CLR 13/13 A3028 RMK AO2 SLP255 T01330128
                 58002 =
2018-09-21 03:52 METAR KTAN 210752Z AUTO 00000KT 10SM CLR 13/12 A3029 RMK AO2 SLP255 T01330122 =
2018-09-21 02:52 METAR KTAN 210652Z AUTO 00000KT 10SM CLR 14/13 A3029 RMK AO2 SLP256 T01390128 =
2018-09-21 01:56 METAR KTAN 210556Z AUTO 00000KT 3SM BR CLR 13/12 A3029 RMK AO2 T01280117 =
2018-09-21 01:52 METAR KTAN 210552Z AUTO 00000KT 1 3/4SM BR CLR 13/12 A3029 RMK AO2 SLP257
                 T01280117 10156 20128 50001 =
2018-09-21 00:52 METAR KTAN 210452Z AUTO 00000KT 10SM CLR 14/13 A3030 RMK AO2 SLP261 T01390133
                 401890133 =
2018-09-20 23:52 METAR KTAN 210352Z AUTO 00000KT 10SM CLR 14/13 A3030 RMK AO2 SLP260 T01440133 =
2018-09-20 22:52 METAR KTAN 210252Z AUTO 00000KT 10SM CLR 15/13 A3029 RMK AO2 SLP256 T01500128
                 50003 =
2018-09-20 21:52 METAR KTAN 210152Z AUTO 00000KT 10SM OVC050 15/14 A3030 RMK AO2 SLP259 T01500139
                 =
2018-09-20 20:52 METAR KTAN 210052Z AUTO 00000KT 10SM OVC050 14/14 A3030 RMK AO2 SLP262 T01440139
                 =
2018-09-20 19:52 METAR KTAN 202352Z AUTO 00000KT 10SM CLR 14/13 A3028 RMK AO2 SLP253 60001
                 T01390128 10189 20139 53009 =
2018-09-20 18:52 METAR KTAN 202252Z AUTO 00000KT 10SM OVC047 17/14 A3027 RMK AO2 SLP249 T01670139
                 =
2018-09-20 17:52 METAR KTAN 202152Z AUTO VRB04KT 10SM OVC046 18/14 A3025 RMK AO2 SLP243 T01780139
                 =

Support USWX by starting your Amazon purchase here.